Terminal Aerodrome Forecast
Issued by NWS

Home | Current Version | Previous Version | Text Only | Print | Product List | Glossary On
Versions: 1 2 3 4 5 6 7 8 9 10 11 12 13
000
FTUS42 TJSJ 171141
TAFISX
TAF
TISX 171141Z 1712/1812 06011KT P6SM FEW022 SCT035
     FM171400 06016G22KT P6SM VCSH SCT025 SCT050
     FM172300 04012KT P6SM VCSH SCT022 SCT040=

USA.gov is the U.S. government's official web portal to all federal, state and local government web resources and services.